sensor_id;sensor_type;location;lat;lon;timestamp;pressure;altitude;pressure_sealevel;temperature
56286;BMP180;42191;47.562;9.686;2023-06-14T00:01:47;96291.00;;;19.90
56286;BMP180;42191;47.562;9.686;2023-06-14T00:04:14;96286.00;;;19.90
56286;BMP180;42191;47.562;9.686;2023-06-14T00:06:44;96285.00;;;19.90
56286;BMP180;42191;47.562;9.686;2023-06-14T00:09:11;96288.00;;;19.80
56286;BMP180;42191;47.562;9.686;2023-06-14T00:11:43;96289.00;;;19.70
56286;BMP180;42191;47.562;9.686;2023-06-14T00:14:09;96287.00;;;19.70
56286;BMP180;42191;47.562;9.686;2023-06-14T00:16:36;96285.00;;;19.60
56286;BMP180;42191;47.562;9.686;2023-06-14T00:19:03;96291.00;;;19.50
56286;BMP180;42191;47.562;9.686;2023-06-14T00:21:30;96292.00;;;19.50
56286;BMP180;42191;47.562;9.686;2023-06-14T00:23:58;96287.00;;;19.40
56286;BMP180;42191;47.562;9.686;2023-06-14T00:26:24;96292.00;;;19.40
56286;BMP180;42191;47.562;9.686;2023-06-14T00:28:52;96287.00;;;19.30
56286;BMP180;42191;47.562;9.686;2023-06-14T00:31:18;96290.00;;;19.20
56286;BMP180;42191;47.562;9.686;2023-06-14T00:33:44;96290.00;;;19.20
56286;BMP180;42191;47.562;9.686;2023-06-14T00:36:11;96284.00;;;19.10
56286;BMP180;42191;47.562;9.686;2023-06-14T00:38:37;96284.00;;;19.00
56286;BMP180;42191;47.562;9.686;2023-06-14T00:41:03;96277.00;;;19.00
56286;BMP180;42191;47.562;9.686;2023-06-14T00:43:29;96276.00;;;18.90
56286;BMP180;42191;47.562;9.686;2023-06-14T00:45:55;96279.00;;;18.90
56286;BMP180;42191;47.562;9.686;2023-06-14T00:48:22;96279.00;;;18.80
56286;BMP180;42191;47.562;9.686;2023-06-14T00:50:49;96281.00;;;18.80
56286;BMP180;42191;47.562;9.686;2023-06-14T00:53:17;96276.00;;;18.80
56286;BMP180;42191;47.562;9.686;2023-06-14T00:55:44;96285.00;;;18.70
56286;BMP180;42191;47.562;9.686;2023-06-14T00:58:10;96277.00;;;18.70
56286;BMP180;42191;47.562;9.686;2023-06-14T01:00:37;96283.00;;;18.60
56286;BMP180;42191;47.562;9.686;2023-06-14T01:03:03;96287.00;;;18.60
56286;BMP180;42191;47.562;9.686;2023-06-14T01:05:30;96279.00;;;18.50
56286;BMP180;42191;47.562;9.686;2023-06-14T01:08:23;96281.00;;;18.40
56286;BMP180;42191;47.562;9.686;2023-06-14T01:10:59;96280.00;;;18.40
56286;BMP180;42191;47.562;9.686;2023-06-14T01:13:33;96274.00;;;18.30
56286;BMP180;42191;47.562;9.686;2023-06-14T01:15:59;96277.00;;;18.20
56286;BMP180;42191;47.562;9.686;2023-06-14T01:18:28;96281.00;;;18.20
56286;BMP180;42191;47.562;9.686;2023-06-14T01:20:56;96282.00;;;18.20
56286;BMP180;42191;47.562;9.686;2023-06-14T01:23:23;96278.00;;;18.10
56286;BMP180;42191;47.562;9.686;2023-06-14T01:25:50;96274.00;;;18.10
56286;BMP180;42191;47.562;9.686;2023-06-14T01:28:21;96264.00;;;18.00
56286;BMP180;42191;47.562;9.686;2023-06-14T01:30:50;96273.00;;;17.90
56286;BMP180;42191;47.562;9.686;2023-06-14T01:33:22;96265.00;;;17.90
56286;BMP180;42191;47.562;9.686;2023-06-14T01:35:51;96272.00;;;17.90
56286;BMP180;42191;47.562;9.686;2023-06-14T01:38:19;96265.00;;;17.80
56286;BMP180;42191;47.562;9.686;2023-06-14T01:40:46;96274.00;;;17.80
56286;BMP180;42191;47.562;9.686;2023-06-14T01:43:14;96277.00;;;17.70
56286;BMP180;42191;47.562;9.686;2023-06-14T01:45:43;96266.00;;;17.70
56286;BMP180;42191;47.562;9.686;2023-06-14T01:48:10;96277.00;;;17.60
56286;BMP180;42191;47.562;9.686;2023-06-14T01:50:36;96270.00;;;17.60
56286;BMP180;42191;47.562;9.686;2023-06-14T01:53:02;96259.00;;;17.50
56286;BMP180;42191;47.562;9.686;2023-06-14T01:55:28;96265.00;;;17.50
56286;BMP180;42191;47.562;9.686;2023-06-14T01:57:54;96260.00;;;17.40
56286;BMP180;42191;47.562;9.686;2023-06-14T02:00:21;96256.00;;;17.40
56286;BMP180;42191;47.562;9.686;2023-06-14T02:02:47;96250.00;;;17.40
56286;BMP180;42191;47.562;9.686;2023-06-14T02:05:13;96259.00;;;17.30
56286;BMP180;42191;47.562;9.686;2023-06-14T02:07:41;96259.00;;;17.30
56286;BMP180;42191;47.562;9.686;2023-06-14T02:10:07;96259.00;;;17.30
56286;BMP180;42191;47.562;9.686;2023-06-14T02:12:34;96261.00;;;17.20
56286;BMP180;42191;47.562;9.686;2023-06-14T02:15:00;96266.00;;;17.20
56286;BMP180;42191;47.562;9.686;2023-06-14T02:17:26;96268.00;;;17.20
56286;BMP180;42191;47.562;9.686;2023-06-14T02:19:52;96265.00;;;17.20
56286;BMP180;42191;47.562;9.686;2023-06-14T02:22:18;96277.00;;;17.20
56286;BMP180;42191;47.562;9.686;2023-06-14T02:24:46;96268.00;;;17.10
56286;BMP180;42191;47.562;9.686;2023-06-14T02:27:12;96269.00;;;17.10
56286;BMP180;42191;47.562;9.686;2023-06-14T02:29:39;96269.00;;;17.10
56286;BMP180;42191;47.562;9.686;2023-06-14T02:32:05;96269.00;;;17.10
56286;BMP180;42191;47.562;9.686;2023-06-14T02:34:33;96270.00;;;17.10
56286;BMP180;42191;47.562;9.686;2023-06-14T02:37:00;96279.00;;;17.00
56286;BMP180;42191;47.562;9.686;2023-06-14T02:39:29;96269.00;;;17.00
56286;BMP180;42191;47.562;9.686;2023-06-14T02:41:55;96275.00;;;17.00
56286;BMP180;42191;47.562;9.686;2023-06-14T02:44:25;96268.00;;;17.00
56286;BMP180;42191;47.562;9.686;2023-06-14T02:46:56;96279.00;;;16.90
56286;BMP180;42191;47.562;9.686;2023-06-14T02:49:22;96279.00;;;16.90
56286;BMP180;42191;47.562;9.686;2023-06-14T02:51:49;96278.00;;;16.90
56286;BMP180;42191;47.562;9.686;2023-06-14T02:54:15;96274.00;;;16.80
56286;BMP180;42191;47.562;9.686;2023-06-14T02:56:41;96278.00;;;16.80
56286;BMP180;42191;47.562;9.686;2023-06-14T02:59:07;96280.00;;;16.80
56286;BMP180;42191;47.562;9.686;2023-06-14T03:01:35;96283.00;;;16.80
56286;BMP180;42191;47.562;9.686;2023-06-14T03:04:04;96280.00;;;16.70
56286;BMP180;42191;47.562;9.686;2023-06-14T03:06:31;96282.00;;;16.70
56286;BMP180;42191;47.562;9.686;2023-06-14T03:08:57;96285.00;;;16.60
56286;BMP180;42191;47.562;9.686;2023-06-14T03:11:30;96285.00;;;16.50
56286;BMP180;42191;47.562;9.686;2023-06-14T03:13:56;96289.00;;;16.50
56286;BMP180;42191;47.562;9.686;2023-06-14T03:16:22;96286.00;;;16.40
56286;BMP180;42191;47.562;9.686;2023-06-14T03:18:53;96296.00;;;16.40
56286;BMP180;42191;47.562;9.686;2023-06-14T03:21:19;96296.00;;;16.30
56286;BMP180;42191;47.562;9.686;2023-06-14T03:23:46;96298.00;;;16.30
56286;BMP180;42191;47.562;9.686;2023-06-14T03:26:13;96301.00;;;16.30
56286;BMP180;42191;47.562;9.686;2023-06-14T03:28:41;96299.00;;;16.20
56286;BMP180;42191;47.562;9.686;2023-06-14T03:31:07;96301.00;;;16.20
56286;BMP180;42191;47.562;9.686;2023-06-14T03:33:34;96302.00;;;16.20
56286;BMP180;42191;47.562;9.686;2023-06-14T03:36:02;96308.00;;;16.20
56286;BMP180;42191;47.562;9.686;2023-06-14T03:38:29;96313.00;;;16.20
56286;BMP180;42191;47.562;9.686;2023-06-14T03:40:55;96312.00;;;16.10
56286;BMP180;42191;47.562;9.686;2023-06-14T03:43:21;96317.00;;;16.10
56286;BMP180;42191;47.562;9.686;2023-06-14T03:45:47;96315.00;;;16.10
56286;BMP180;42191;47.562;9.686;2023-06-14T03:48:13;96308.00;;;16.10
56286;BMP180;42191;47.562;9.686;2023-06-14T03:50:39;96317.00;;;16.10
56286;BMP180;42191;47.562;9.686;2023-06-14T03:53:07;96317.00;;;16.10
56286;BMP180;42191;47.562;9.686;2023-06-14T03:55:33;96332.00;;;16.10
56286;BMP180;42191;47.562;9.686;2023-06-14T03:57:59;96331.00;;;16.10
56286;BMP180;42191;47.562;9.686;2023-06-14T04:00:25;96329.00;;;16.00
56286;BMP180;42191;47.562;9.686;2023-06-14T04:02:52;96339.00;;;16.10
56286;BMP180;42191;47.562;9.686;2023-06-14T04:05:19;96343.00;;;16.00
56286;BMP180;42191;47.562;9.686;2023-06-14T04:07:46;96346.00;;;16.00
56286;BMP180;42191;47.562;9.686;2023-06-14T04:10:15;96345.00;;;16.00
56286;BMP180;42191;47.562;9.686;2023-06-14T04:12:42;96339.00;;;16.10
56286;BMP180;42191;47.562;9.686;2023-06-14T04:15:09;96350.00;;;16.10
56286;BMP180;42191;47.562;9.686;2023-06-14T04:17:36;96341.00;;;16.10
56286;BMP180;42191;47.562;9.686;2023-06-14T04:20:03;96345.00;;;16.10
56286;BMP180;42191;47.562;9.686;2023-06-14T04:22:35;96354.00;;;16.10
56286;BMP180;42191;47.562;9.686;2023-06-14T04:25:02;96360.00;;;16.20
56286;BMP180;42191;47.562;9.686;2023-06-14T04:27:28;96367.00;;;16.20
56286;BMP180;42191;47.562;9.686;2023-06-14T04:29:57;96360.00;;;16.20
56286;BMP180;42191;47.562;9.686;2023-06-14T04:32:26;96367.00;;;16.20
56286;BMP180;42191;47.562;9.686;2023-06-14T04:34:56;96371.00;;;16.30
56286;BMP180;42191;47.562;9.686;2023-06-14T04:37:23;96365.00;;;16.30
56286;BMP180;42191;47.562;9.686;2023-06-14T04:39:50;96360.00;;;16.30
56286;BMP180;42191;47.562;9.686;2023-06-14T04:42:17;96372.00;;;16.40
56286;BMP180;42191;47.562;9.686;2023-06-14T04:44:46;96367.00;;;16.40
56286;BMP180;42191;47.562;9.686;2023-06-14T04:47:13;96374.00;;;16.40
56286;BMP180;42191;47.562;9.686;2023-06-14T04:49:42;96378.00;;;16.50
56286;BMP180;42191;47.562;9.686;2023-06-14T04:52:08;96380.00;;;16.60
56286;BMP180;42191;47.562;9.686;2023-06-14T04:54:36;96374.00;;;16.60
56286;BMP180;42191;47.562;9.686;2023-06-14T04:57:07;96375.00;;;16.60
56286;BMP180;42191;47.562;9.686;2023-06-14T04:59:34;96380.00;;;16.70
56286;BMP180;42191;47.562;9.686;2023-06-14T05:02:02;96377.00;;;16.70
56286;BMP180;42191;47.562;9.686;2023-06-14T05:04:28;96392.00;;;16.80
56286;BMP180;42191;47.562;9.686;2023-06-14T05:06:55;96381.00;;;16.90
56286;BMP180;42191;47.562;9.686;2023-06-14T05:09:21;96389.00;;;16.90
56286;BMP180;42191;47.562;9.686;2023-06-14T05:11:47;96391.00;;;17.00
56286;BMP180;42191;47.562;9.686;2023-06-14T05:14:14;96389.00;;;17.00
56286;BMP180;42191;47.562;9.686;2023-06-14T05:16:40;96389.00;;;17.10
56286;BMP180;42191;47.562;9.686;2023-06-14T05:19:07;96389.00;;;17.20
56286;BMP180;42191;47.562;9.686;2023-06-14T05:21:33;96383.00;;;17.20
56286;BMP180;42191;47.562;9.686;2023-06-14T05:24:03;96382.00;;;17.30
56286;BMP180;42191;47.562;9.686;2023-06-14T05:26:29;96385.00;;;17.40
56286;BMP180;42191;47.562;9.686;2023-06-14T05:28:56;96383.00;;;17.50
56286;BMP180;42191;47.562;9.686;2023-06-14T05:31:26;96386.00;;;17.50
56286;BMP180;42191;47.562;9.686;2023-06-14T05:34:18;96393.00;;;17.60
56286;BMP180;42191;47.562;9.686;2023-06-14T05:37:23;96402.00;;;17.70
56286;BMP180;42191;47.562;9.686;2023-06-14T05:39:52;96396.00;;;17.80
56286;BMP180;42191;47.562;9.686;2023-06-14T05:42:18;96397.00;;;17.90
56286;BMP180;42191;47.562;9.686;2023-06-14T05:44:44;96400.00;;;18.00
56286;BMP180;42191;47.562;9.686;2023-06-14T05:47:10;96391.00;;;18.00
56286;BMP180;42191;47.562;9.686;2023-06-14T05:49:37;96392.00;;;18.10
56286;BMP180;42191;47.562;9.686;2023-06-14T05:52:03;96404.00;;;18.20
56286;BMP180;42191;47.562;9.686;2023-06-14T05:54:29;96394.00;;;18.30
56286;BMP180;42191;47.562;9.686;2023-06-14T05:56:55;96404.00;;;18.40
56286;BMP180;42191;47.562;9.686;2023-06-14T05:59:22;96399.00;;;18.50
56286;BMP180;42191;47.562;9.686;2023-06-14T06:01:51;96403.00;;;18.60
56286;BMP180;42191;47.562;9.686;2023-06-14T06:04:17;96410.00;;;18.60
56286;BMP180;42191;47.562;9.686;2023-06-14T06:06:43;96406.00;;;18.70
56286;BMP180;42191;47.562;9.686;2023-06-14T06:09:09;96414.00;;;18.80
56286;BMP180;42191;47.562;9.686;2023-06-14T06:11:35;96413.00;;;18.90
56286;BMP180;42191;47.562;9.686;2023-06-14T06:14:01;96413.00;;;19.00
56286;BMP180;42191;47.562;9.686;2023-06-14T06:16:27;96412.00;;;19.00
56286;BMP180;42191;47.562;9.686;2023-06-14T06:18:53;96424.00;;;19.10
56286;BMP180;42191;47.562;9.686;2023-06-14T06:21:20;96429.00;;;19.20
56286;BMP180;42191;47.562;9.686;2023-06-14T06:23:46;96428.00;;;19.30
56286;BMP180;42191;47.562;9.686;2023-06-14T06:26:12;96427.00;;;19.40
56286;BMP180;42191;47.562;9.686;2023-06-14T06:28:38;96426.00;;;19.50
56286;BMP180;42191;47.562;9.686;2023-06-14T06:31:04;96420.00;;;19.50
56286;BMP180;42191;47.562;9.686;2023-06-14T06:33:31;96439.00;;;19.60
56286;BMP180;42191;47.562;9.686;2023-06-14T06:35:57;96433.00;;;19.70
56286;BMP180;42191;47.562;9.686;2023-06-14T06:38:23;96435.00;;;19.80
56286;BMP180;42191;47.562;9.686;2023-06-14T06:40:49;96442.00;;;19.80
56286;BMP180;42191;47.562;9.686;2023-06-14T06:43:15;96435.00;;;19.90
56286;BMP180;42191;47.562;9.686;2023-06-14T06:45:43;96438.00;;;20.00
56286;BMP180;42191;47.562;9.686;2023-06-14T06:48:09;96445.00;;;20.00
56286;BMP180;42191;47.562;9.686;2023-06-14T06:50:36;96442.00;;;20.10
56286;BMP180;42191;47.562;9.686;2023-06-14T06:53:02;96434.00;;;20.20
56286;BMP180;42191;47.562;9.686;2023-06-14T06:55:29;96443.00;;;20.20
56286;BMP180;42191;47.562;9.686;2023-06-14T06:57:55;96446.00;;;20.30
56286;BMP180;42191;47.562;9.686;2023-06-14T07:00:21;96453.00;;;20.40
56286;BMP180;42191;47.562;9.686;2023-06-14T07:02:47;96452.00;;;20.40
56286;BMP180;42191;47.562;9.686;2023-06-14T07:05:14;96451.00;;;20.50
56286;BMP180;42191;47.562;9.686;2023-06-14T07:07:40;96441.00;;;20.50
56286;BMP180;42191;47.562;9.686;2023-06-14T07:10:06;96453.00;;;20.60
56286;BMP180;42191;47.562;9.686;2023-06-14T07:12:33;96453.00;;;20.70
56286;BMP180;42191;47.562;9.686;2023-06-14T07:15:02;96445.00;;;20.70
56286;BMP180;42191;47.562;9.686;2023-06-14T07:17:28;96448.00;;;20.80
56286;BMP180;42191;47.562;9.686;2023-06-14T07:19:54;96453.00;;;20.90
56286;BMP180;42191;47.562;9.686;2023-06-14T07:22:20;96453.00;;;20.90
56286;BMP180;42191;47.562;9.686;2023-06-14T07:24:46;96462.00;;;21.00
56286;BMP180;42191;47.562;9.686;2023-06-14T07:27:12;96453.00;;;21.10
56286;BMP180;42191;47.562;9.686;2023-06-14T07:29:39;96451.00;;;21.10
56286;BMP180;42191;47.562;9.686;2023-06-14T07:32:05;96465.00;;;21.20
56286;BMP180;42191;47.562;9.686;2023-06-14T07:34:32;96448.00;;;21.30
56286;BMP180;42191;47.562;9.686;2023-06-14T07:36:58;96454.00;;;21.40
56286;BMP180;42191;47.562;9.686;2023-06-14T07:39:24;96456.00;;;21.40
56286;BMP180;42191;47.562;9.686;2023-06-14T07:41:50;96459.00;;;21.40
56286;BMP180;42191;47.562;9.686;2023-06-14T07:44:16;96456.00;;;21.40
56286;BMP180;42191;47.562;9.686;2023-06-14T07:46:42;96455.00;;;21.50
56286;BMP180;42191;47.562;9.686;2023-06-14T07:49:09;96457.00;;;21.50
56286;BMP180;42191;47.562;9.686;2023-06-14T07:51:35;96461.00;;;21.60
56286;BMP180;42191;47.562;9.686;2023-06-14T07:54:01;96456.00;;;21.60
56286;BMP180;42191;47.562;9.686;2023-06-14T07:56:28;96464.00;;;21.70
56286;BMP180;42191;47.562;9.686;2023-06-14T07:58:54;96462.00;;;21.80
56286;BMP180;42191;47.562;9.686;2023-06-14T08:01:20;96459.00;;;21.80
56286;BMP180;42191;47.562;9.686;2023-06-14T08:03:47;96455.00;;;21.80
56286;BMP180;42191;47.562;9.686;2023-06-14T08:06:13;96453.00;;;21.90
56286;BMP180;42191;47.562;9.686;2023-06-14T08:08:39;96451.00;;;21.90
56286;BMP180;42191;47.562;9.686;2023-06-14T08:11:05;96457.00;;;21.90
56286;BMP180;42191;47.562;9.686;2023-06-14T08:13:31;96460.00;;;22.00
56286;BMP180;42191;47.562;9.686;2023-06-14T08:15:57;96460.00;;;22.00
56286;BMP180;42191;47.562;9.686;2023-06-14T08:18:24;96461.00;;;22.10
56286;BMP180;42191;47.562;9.686;2023-06-14T08:20:50;96458.00;;;22.10
56286;BMP180;42191;47.562;9.686;2023-06-14T08:23:17;96464.00;;;22.10
56286;BMP180;42191;47.562;9.686;2023-06-14T08:25:45;96455.00;;;22.20
56286;BMP180;42191;47.562;9.686;2023-06-14T08:28:11;96451.00;;;22.20
56286;BMP180;42191;47.562;9.686;2023-06-14T08:30:37;96456.00;;;22.20
56286;BMP180;42191;47.562;9.686;2023-06-14T08:33:03;96452.00;;;22.20
56286;BMP180;42191;47.562;9.686;2023-06-14T08:35:29;96461.00;;;22.30
56286;BMP180;42191;47.562;9.686;2023-06-14T08:37:55;96452.00;;;22.30
56286;BMP180;42191;47.562;9.686;2023-06-14T08:40:23;96460.00;;;22.40
56286;BMP180;42191;47.562;9.686;2023-06-14T08:42:54;96462.00;;;22.40
56286;BMP180;42191;47.562;9.686;2023-06-14T08:45:24;96467.00;;;22.50
56286;BMP180;42191;47.562;9.686;2023-06-14T08:47:51;96459.00;;;22.50
56286;BMP180;42191;47.562;9.686;2023-06-14T08:50:27;96470.00;;;22.50
56286;BMP180;42191;47.562;9.686;2023-06-14T08:52:57;96464.00;;;22.50
56286;BMP180;42191;47.562;9.686;2023-06-14T08:55:27;96479.00;;;22.50
56286;BMP180;42191;47.562;9.686;2023-06-14T08:57:55;96469.00;;;22.50
56286;BMP180;42191;47.562;9.686;2023-06-14T09:00:24;96471.00;;;22.60
56286;BMP180;42191;47.562;9.686;2023-06-14T09:02:51;96461.00;;;22.60
56286;BMP180;42191;47.562;9.686;2023-06-14T09:05:25;96466.00;;;22.70
56286;BMP180;42191;47.562;9.686;2023-06-14T09:07:52;96471.00;;;22.70
56286;BMP180;42191;47.562;9.686;2023-06-14T09:10:21;96473.00;;;22.70
56286;BMP180;42191;47.562;9.686;2023-06-14T09:12:47;96466.00;;;22.80
56286;BMP180;42191;47.562;9.686;2023-06-14T09:15:14;96462.00;;;22.80
56286;BMP180;42191;47.562;9.686;2023-06-14T09:17:40;96462.00;;;22.90
56286;BMP180;42191;47.562;9.686;2023-06-14T09:20:08;96456.00;;;23.00
56286;BMP180;42191;47.562;9.686;2023-06-14T09:22:44;96449.00;;;23.00
56286;BMP180;42191;47.562;9.686;2023-06-14T09:25:11;96449.00;;;23.10
56286;BMP180;42191;47.562;9.686;2023-06-14T09:27:41;96447.00;;;23.10
56286;BMP180;42191;47.562;9.686;2023-06-14T09:30:09;96450.00;;;23.20
56286;BMP180;42191;47.562;9.686;2023-06-14T09:32:39;96460.00;;;23.20
56286;BMP180;42191;47.562;9.686;2023-06-14T09:35:09;96461.00;;;23.30
56286;BMP180;42191;47.562;9.686;2023-06-14T09:37:35;96458.00;;;23.40
56286;BMP180;42191;47.562;9.686;2023-06-14T09:40:04;96458.00;;;23.40
56286;BMP180;42191;47.562;9.686;2023-06-14T09:42:31;96457.00;;;23.40
56286;BMP180;42191;47.562;9.686;2023-06-14T09:44:57;96457.00;;;23.50
56286;BMP180;42191;47.562;9.686;2023-06-14T09:47:24;96467.00;;;23.60
56286;BMP180;42191;47.562;9.686;2023-06-14T09:49:51;96458.00;;;23.60
56286;BMP180;42191;47.562;9.686;2023-06-14T09:52:21;96465.00;;;23.70
56286;BMP180;42191;47.562;9.686;2023-06-14T09:54:48;96463.00;;;23.80
56286;BMP180;42191;47.562;9.686;2023-06-14T09:57:21;96460.00;;;23.80
56286;BMP180;42191;47.562;9.686;2023-06-14T09:59:48;96454.00;;;23.90
56286;BMP180;42191;47.562;9.686;2023-06-14T10:02:36;96452.00;;;24.00
56286;BMP180;42191;47.562;9.686;2023-06-14T10:05:11;96455.00;;;24.10
56286;BMP180;42191;47.562;9.686;2023-06-14T10:07:58;96450.00;;;24.20
56286;BMP180;42191;47.562;9.686;2023-06-14T10:10:25;96448.00;;;24.30
56286;BMP180;42191;47.562;9.686;2023-06-14T10:12:51;96440.00;;;24.40
56286;BMP180;42191;47.562;9.686;2023-06-14T10:15:28;96443.00;;;24.50
56286;BMP180;42191;47.562;9.686;2023-06-14T10:18:01;96446.00;;;24.50
56286;BMP180;42191;47.562;9.686;2023-06-14T10:20:49;96439.00;;;24.60
56286;BMP180;42191;47.562;9.686;2023-06-14T10:23:20;96446.00;;;24.70
56286;BMP180;42191;47.562;9.686;2023-06-14T10:25:50;96439.00;;;24.80
56286;BMP180;42191;47.562;9.686;2023-06-14T10:28:21;96439.00;;;24.90
56286;BMP180;42191;47.562;9.686;2023-06-14T10:31:06;96440.00;;;25.00
56286;BMP180;42191;47.562;9.686;2023-06-14T10:33:34;96444.00;;;25.10
56286;BMP180;42191;47.562;9.686;2023-06-14T10:39:08;96447.00;;;25.30
56286;BMP180;42191;47.562;9.686;2023-06-14T10:41:38;96445.00;;;25.40
56286;BMP180;42191;47.562;9.686;2023-06-14T10:46:40;96433.00;;;25.50
56286;BMP180;42191;47.562;9.686;2023-06-14T10:49:11;96424.00;;;25.60
56286;BMP180;42191;47.562;9.686;2023-06-14T10:51:42;96419.00;;;25.70
56286;BMP180;42191;47.562;9.686;2023-06-14T10:54:12;96420.00;;;25.80
56286;BMP180;42191;47.562;9.686;2023-06-14T10:56:52;96431.00;;;25.90
56286;BMP180;42191;47.562;9.686;2023-06-14T10:59:20;96420.00;;;26.00
56286;BMP180;42191;47.562;9.686;2023-06-14T11:02:03;96425.00;;;26.10
56286;BMP180;42191;47.562;9.686;2023-06-14T11:07:58;96421.00;;;26.40
56286;BMP180;42191;47.562;9.686;2023-06-14T11:10:41;96411.00;;;26.60
56286;BMP180;42191;47.562;9.686;2023-06-14T11:13:08;96418.00;;;26.70
56286;BMP180;42191;47.562;9.686;2023-06-14T11:15:35;96421.00;;;26.90
56286;BMP180;42191;47.562;9.686;2023-06-14T11:18:03;96411.00;;;27.00
56286;BMP180;42191;47.562;9.686;2023-06-14T11:20:32;96411.00;;;27.10
56286;BMP180;42191;47.562;9.686;2023-06-14T11:22:58;96414.00;;;27.30
56286;BMP180;42191;47.562;9.686;2023-06-14T11:25:25;96418.00;;;27.40
56286;BMP180;42191;47.562;9.686;2023-06-14T11:27:52;96404.00;;;27.50
56286;BMP180;42191;47.562;9.686;2023-06-14T11:30:19;96405.00;;;27.70
56286;BMP180;42191;47.562;9.686;2023-06-14T11:32:52;96410.00;;;27.80
56286;BMP180;42191;47.562;9.686;2023-06-14T11:35:21;96404.00;;;27.90
56286;BMP180;42191;47.562;9.686;2023-06-14T11:37:52;96418.00;;;28.10
56286;BMP180;42191;47.562;9.686;2023-06-14T11:40:18;96413.00;;;28.20
56286;BMP180;42191;47.562;9.686;2023-06-14T11:42:44;96405.00;;;28.30
56286;BMP180;42191;47.562;9.686;2023-06-14T11:45:11;96411.00;;;28.40
56286;BMP180;42191;47.562;9.686;2023-06-14T11:47:39;96399.00;;;28.50
56286;BMP180;42191;47.562;9.686;2023-06-14T11:50:07;96406.00;;;28.60
56286;BMP180;42191;47.562;9.686;2023-06-14T11:52:39;96408.00;;;28.70
56286;BMP180;42191;47.562;9.686;2023-06-14T11:55:06;96409.00;;;28.80
56286;BMP180;42191;47.562;9.686;2023-06-14T11:57:36;96410.00;;;28.80
56286;BMP180;42191;47.562;9.686;2023-06-14T12:00:08;96408.00;;;28.90
56286;BMP180;42191;47.562;9.686;2023-06-14T12:02:38;96405.00;;;29.00
56286;BMP180;42191;47.562;9.686;2023-06-14T12:05:07;96401.00;;;29.10
56286;BMP180;42191;47.562;9.686;2023-06-14T12:07:36;96399.00;;;29.20
56286;BMP180;42191;47.562;9.686;2023-06-14T12:12:38;96402.00;;;29.20
56286;BMP180;42191;47.562;9.686;2023-06-14T12:15:05;96392.00;;;29.30
56286;BMP180;42191;47.562;9.686;2023-06-14T12:17:36;96396.00;;;29.40
56286;BMP180;42191;47.562;9.686;2023-06-14T12:20:08;96394.00;;;29.50
56286;BMP180;42191;47.562;9.686;2023-06-14T12:22:37;96395.00;;;29.60
56286;BMP180;42191;47.562;9.686;2023-06-14T12:25:06;96404.00;;;29.70
56286;BMP180;42191;47.562;9.686;2023-06-14T12:27:35;96396.00;;;29.80
56286;BMP180;42191;47.562;9.686;2023-06-14T12:30:04;96399.00;;;29.80
56286;BMP180;42191;47.562;9.686;2023-06-14T12:32:33;96392.00;;;29.90
56286;BMP180;42191;47.562;9.686;2023-06-14T12:34:59;96394.00;;;30.00
56286;BMP180;42191;47.562;9.686;2023-06-14T12:37:25;96399.00;;;30.00
56286;BMP180;42191;47.562;9.686;2023-06-14T12:39:51;96407.00;;;30.00
56286;BMP180;42191;47.562;9.686;2023-06-14T12:42:17;96401.00;;;30.00
56286;BMP180;42191;47.562;9.686;2023-06-14T12:44:44;96402.00;;;30.00
56286;BMP180;42191;47.562;9.686;2023-06-14T12:47:10;96416.00;;;29.90
56286;BMP180;42191;47.562;9.686;2023-06-14T12:49:36;96400.00;;;29.90
56286;BMP180;42191;47.562;9.686;2023-06-14T12:52:02;96418.00;;;29.80
56286;BMP180;42191;47.562;9.686;2023-06-14T12:54:28;96401.00;;;29.80
56286;BMP180;42191;47.562;9.686;2023-06-14T12:56:54;96402.00;;;29.80
56286;BMP180;42191;47.562;9.686;2023-06-14T12:59:21;96410.00;;;29.80
56286;BMP180;42191;47.562;9.686;2023-06-14T13:01:47;96401.00;;;29.80
56286;BMP180;42191;47.562;9.686;2023-06-14T13:04:16;96402.00;;;30.10
56286;BMP180;42191;47.562;9.686;2023-06-14T13:06:42;96393.00;;;30.50
56286;BMP180;42191;47.562;9.686;2023-06-14T13:09:08;96401.00;;;31.20
56286;BMP180;42191;47.562;9.686;2023-06-14T13:11:34;96408.00;;;31.90
56286;BMP180;42191;47.562;9.686;2023-06-14T13:14:01;96402.00;;;32.70
56286;BMP180;42191;47.562;9.686;2023-06-14T13:16:27;96409.00;;;33.40
56286;BMP180;42191;47.562;9.686;2023-06-14T13:18:53;96404.00;;;34.20
56286;BMP180;42191;47.562;9.686;2023-06-14T13:21:19;96407.00;;;35.00
56286;BMP180;42191;47.562;9.686;2023-06-14T13:23:45;96414.00;;;35.90
56286;BMP180;42191;47.562;9.686;2023-06-14T13:26:11;96408.00;;;36.80
56286;BMP180;42191;47.562;9.686;2023-06-14T13:28:38;96414.00;;;37.60
56286;BMP180;42191;47.562;9.686;2023-06-14T13:31:04;96410.00;;;38.20
56286;BMP180;42191;47.562;9.686;2023-06-14T13:33:30;96413.00;;;38.80
56286;BMP180;42191;47.562;9.686;2023-06-14T13:35:57;96413.00;;;39.40
56286;BMP180;42191;47.562;9.686;2023-06-14T13:38:23;96417.00;;;40.00
56286;BMP180;42191;47.562;9.686;2023-06-14T13:40:49;96422.00;;;40.60
56286;BMP180;42191;47.562;9.686;2023-06-14T13:43:15;96413.00;;;41.00
56286;BMP180;42191;47.562;9.686;2023-06-14T13:45:41;96412.00;;;41.30
56286;BMP180;42191;47.562;9.686;2023-06-14T13:48:07;96404.00;;;41.60
56286;BMP180;42191;47.562;9.686;2023-06-14T13:50:33;96415.00;;;41.90
56286;BMP180;42191;47.562;9.686;2023-06-14T13:53:00;96416.00;;;42.20
56286;BMP180;42191;47.562;9.686;2023-06-14T13:55:26;96418.00;;;42.50
56286;BMP180;42191;47.562;9.686;2023-06-14T13:57:52;96412.00;;;42.80
56286;BMP180;42191;47.562;9.686;2023-06-14T14:00:18;96412.00;;;43.20
56286;BMP180;42191;47.562;9.686;2023-06-14T14:02:45;96416.00;;;43.50
56286;BMP180;42191;47.562;9.686;2023-06-14T14:05:11;96410.00;;;43.50
56286;BMP180;42191;47.562;9.686;2023-06-14T14:07:37;96412.00;;;43.60
56286;BMP180;42191;47.562;9.686;2023-06-14T14:10:04;96411.00;;;44.00
56286;BMP180;42191;47.562;9.686;2023-06-14T14:12:30;96415.00;;;44.20
56286;BMP180;42191;47.562;9.686;2023-06-14T14:14:57;96407.00;;;44.40
56286;BMP180;42191;47.562;9.686;2023-06-14T14:17:23;96419.00;;;44.70
56286;BMP180;42191;47.562;9.686;2023-06-14T14:19:49;96415.00;;;44.80
56286;BMP180;42191;47.562;9.686;2023-06-14T14:22:15;96415.00;;;44.70
56286;BMP180;42191;47.562;9.686;2023-06-14T14:24:41;96413.00;;;44.70